createdAt,value
2019-04-01T00:01:00.615Z,101830.40
2019-04-01T00:03:26.572Z,101837.86
2019-04-01T00:05:52.522Z,101841.87
2019-04-01T00:08:18.595Z,101835.33
2019-04-01T00:10:44.575Z,101838.89
2019-04-01T00:13:10.440Z,101838.45
2019-04-01T00:15:36.491Z,101841.99
2019-04-01T00:18:02.337Z,101849.48
2019-04-01T00:20:28.292Z,101849.03
2019-04-01T00:22:54.425Z,101846.42
2019-04-01T00:25:20.405Z,101863.13
2019-04-01T00:27:46.284Z,101864.44
2019-04-01T00:30:12.238Z,101830.45
2019-04-01T00:32:38.101Z,101882.89
2019-04-01T00:35:05.062Z,101890.38
2019-04-01T00:37:31.026Z,101893.02
2019-04-01T00:39:56.905Z,101896.08
2019-04-01T00:42:27.559Z,101903.09
2019-04-01T00:44:53.727Z,101903.55
2019-04-01T00:47:19.572Z,101903.97
2019-04-01T00:49:45.581Z,101907.91
2019-04-01T00:52:13.508Z,101909.65
2019-04-01T00:54:39.374Z,101910.96
2019-04-01T00:57:05.356Z,101905.71
2019-04-01T00:59:31.352Z,101912.32
2019-04-01T01:01:57.202Z,101910.12
2019-04-01T01:04:23.158Z,101923.27
2019-04-01T01:06:49.281Z,101919.32
2019-04-01T01:09:15.144Z,101922.84
2019-04-01T01:11:41.037Z,101920.64
2019-04-01T01:14:07.205Z,101912.75
2019-04-01T01:16:33.091Z,101931.66
2019-04-01T01:18:58.986Z,101925.95
2019-04-01T01:21:25.136Z,101926.88
2019-04-01T01:23:50.998Z,101932.58
2019-04-01T01:26:16.834Z,101943.59
2019-04-01T01:28:42.885Z,101946.23
2019-04-01T01:31:08.756Z,101955.89
2019-04-01T01:33:34.629Z,101959.86
2019-04-01T01:36:00.614Z,101962.51
2019-04-01T01:38:26.615Z,101957.68
2019-04-01T01:40:52.473Z,101958.58
2019-04-01T01:43:18.580Z,101961.63
2019-04-01T01:45:44.457Z,101970.41
2019-04-01T01:48:11.431Z,101973.48
2019-04-01T01:50:37.411Z,101977.02
2019-04-01T01:53:03.302Z,101977.04
2019-04-01T01:55:29.378Z,101975.74
2019-04-01T01:57:55.349Z,101975.75
2019-04-01T02:00:22.729Z,101984.94
2019-04-01T02:02:48.600Z,101986.25
2019-04-01T02:05:14.668Z,101985.80
2019-04-01T02:07:40.543Z,101981.44
2019-04-01T02:10:06.617Z,101983.20
2019-04-01T02:12:32.654Z,101984.95
2019-04-01T02:14:58.685Z,101992.84
2019-04-01T02:17:24.567Z,101986.73
2019-04-01T02:19:50.600Z,101991.53
2019-04-01T02:22:16.474Z,101995.48
2019-04-01T02:24:42.313Z,102007.32
2019-04-01T02:27:08.277Z,101994.19
2019-04-01T02:29:34.230Z,101998.14
2019-04-01T02:32:00.208Z,101992.89
2019-04-01T02:34:26.215Z,102001.23
2019-04-01T02:36:52.179Z,101999.46
2019-04-01T02:39:18.118Z,102002.09
2019-04-01T02:41:44.095Z,102006.91
2019-04-01T02:44:10.024Z,102008.22
2019-04-01T02:46:35.969Z,102006.48
2019-04-01T02:49:02.149Z,102012.59
2019-04-01T02:51:28.141Z,102016.53
2019-04-01T02:53:54.010Z,102018.73
2019-04-01T02:56:20.144Z,102029.25
2019-04-01T02:58:46.012Z,102028.36
2019-04-01T03:01:12.009Z,102036.70
2019-04-01T03:03:37.939Z,102034.51
2019-04-01T03:06:03.879Z,102027.94
2019-04-01T03:08:29.701Z,102030.57
2019-04-01T03:10:55.648Z,102024.43
2019-04-01T03:13:21.546Z,102024.43
2019-04-01T03:15:47.392Z,102026.17
2019-04-01T03:18:13.487Z,102029.27
2019-04-01T03:20:39.420Z,102029.27
2019-04-01T03:23:05.423Z,102029.27
2019-04-01T03:25:31.348Z,102024.44
2019-04-01T03:27:57.240Z,102024.86
2019-04-01T03:30:23.200Z,102032.31
2019-04-01T03:32:49.233Z,102037.58
2019-04-01T03:35:15.136Z,102048.97
2019-04-01T03:37:41.003Z,102050.28
2019-04-01T03:40:07.440Z,102049.39
2019-04-01T03:42:33.444Z,102047.20
2019-04-01T03:44:59.422Z,102043.25
2019-04-01T03:47:25.758Z,102045.45
2019-04-01T03:49:51.660Z,102049.39
2019-04-01T03:52:17.635Z,102053.77
2019-04-01T03:54:43.670Z,102058.59
2019-04-01T03:57:09.649Z,102068.66
2019-04-01T03:59:35.514Z,102062.09
2019-04-01T04:02:01.775Z,102075.66
2019-04-01T04:04:27.672Z,102075.23
2019-04-01T04:06:53.497Z,102068.66
2019-04-01T04:09:19.479Z,102070.83
2019-04-01T04:11:45.348Z,102072.60
2019-04-01T04:14:13.227Z,102067.34
2019-04-01T04:16:39.276Z,102069.52
2019-04-01T04:19:05.235Z,102063.41
2019-04-01T04:21:31.117Z,102070.83
2019-04-01T04:23:57.271Z,102009.54
2019-04-01T04:26:23.219Z,102061.22
2019-04-01T04:28:49.182Z,102055.95
2019-04-01T04:31:15.132Z,102055.96
2019-04-01T04:33:41.100Z,102054.22
2019-04-01T04:36:07.287Z,102059.47
2019-04-01T04:38:33.313Z,102058.16
2019-04-01T04:40:59.210Z,102054.22
2019-04-01T04:43:25.081Z,102055.07
2019-04-01T04:45:51.116Z,102063.84
2019-04-01T04:48:18.068Z,102062.95
2019-04-01T04:50:43.931Z,102067.36
2019-04-01T04:53:09.893Z,102068.66
2019-04-01T04:55:35.820Z,102071.30
2019-04-01T04:58:01.981Z,102063.84
2019-04-01T05:00:28.108Z,102060.78
2019-04-01T05:02:53.996Z,102062.09
2019-04-01T05:05:20.106Z,102059.47
2019-04-01T05:07:46.122Z,102010.42
2019-04-01T05:10:12.215Z,102042.82
2019-04-01T05:12:38.164Z,102045.02
2019-04-01T05:15:05.270Z,102046.76
2019-04-01T05:17:31.473Z,102046.33
2019-04-01T05:19:57.432Z,101985.06
2019-04-01T05:22:24.798Z,102055.95
2019-04-01T05:24:51.103Z,102063.41
2019-04-01T05:27:18.837Z,102058.57
2019-04-01T05:29:45.791Z,102061.66
2019-04-01T05:32:11.770Z,102063.82
2019-04-01T05:34:37.750Z,102061.65
2019-04-01T05:37:03.914Z,102054.62
2019-04-01T05:39:30.400Z,102058.55
2019-04-01T05:41:56.386Z,102062.07
2019-04-01T05:44:22.563Z,102059.44
2019-04-01T05:46:48.493Z,102061.19
2019-04-01T05:49:14.488Z,102065.59
2019-04-01T05:51:40.614Z,102065.58
2019-04-01T05:54:06.592Z,102072.58
2019-04-01T05:56:32.553Z,102062.49
2019-04-01T05:58:58.573Z,102064.69
2019-04-01T06:01:38.618Z,102068.20
2019-04-01T06:04:04.632Z,102069.93
2019-04-01T06:06:30.584Z,102061.18
2019-04-01T06:08:56.422Z,102066.42
2019-04-01T06:11:22.556Z,102065.95
2019-04-01T06:13:48.659Z,102066.41
2019-04-01T06:16:14.635Z,102068.14
2019-04-01T06:18:40.787Z,102065.92
2019-04-01T06:21:06.802Z,102058.48
2019-04-01T06:23:32.675Z,102060.22
2019-04-01T06:25:58.766Z,102058.92
2019-04-01T06:28:24.698Z,102058.03
2019-04-01T06:30:50.717Z,102051.91
2019-04-01T06:33:17.052Z,102056.27
2019-04-01T06:35:43.154Z,102052.33
2019-04-01T06:38:09.120Z,102062.00
2019-04-01T06:40:35.259Z,102061.53
2019-04-01T06:43:01.237Z,102065.93
2019-04-01T06:45:27.203Z,102069.88
2019-04-01T06:47:53.379Z,102073.81
2019-04-01T06:50:19.318Z,102077.75
2019-04-01T06:52:45.272Z,102080.38
2019-04-01T06:55:11.438Z,102079.92
2019-04-01T06:57:37.374Z,102073.80
2019-04-01T07:00:03.715Z,102076.41
2019-04-01T07:02:29.809Z,102067.62
2019-04-01T07:04:55.699Z,102075.06
2019-04-01T07:07:21.683Z,102073.28
2019-04-01T07:09:50.632Z,102061.44
2019-04-01T07:12:15.906Z,102066.25
2019-04-01T07:14:41.884Z,102065.83
2019-04-01T07:17:08.035Z,102070.64
2019-04-01T07:19:33.992Z,102066.22
2019-04-01T07:22:00.027Z,102057.89
2019-04-01T07:24:26.135Z,102055.66
2019-04-01T07:26:52.091Z,102058.73
2019-04-01T07:29:17.954Z,102053.47
2019-04-01T07:31:43.994Z,102052.57
2019-04-01T07:34:09.953Z,102044.23
2019-04-01T07:36:35.928Z,102046.41
2019-04-01T07:39:02.223Z,102038.06
2019-04-01T07:41:28.081Z,101846.17
2019-04-01T07:43:53.946Z,102033.20
2019-04-01T07:46:20.139Z,102028.80
2019-04-01T07:48:46.144Z,102022.19
2019-04-01T07:51:12.090Z,102025.25
2019-04-01T07:53:38.480Z,102022.59
2019-04-01T07:56:05.204Z,102025.63
2019-04-01T07:58:31.180Z,102031.30
2019-04-01T08:00:57.222Z,102025.59
2019-04-01T08:03:23.195Z,102023.83
2019-04-01T08:05:49.133Z,102025.97
2019-04-01T08:08:15.624Z,102016.32
2019-04-01T08:10:41.579Z,102015.87
2019-04-01T08:13:07.857Z,102024.62
2019-04-01T08:15:33.994Z,102017.55
2019-04-01T08:17:59.952Z,102006.13
2019-04-01T08:20:25.959Z,102008.28
2019-04-01T08:22:52.127Z,102013.09
2019-04-01T08:25:18.103Z,101964.09
2019-04-01T08:27:44.524Z,102008.22
2019-04-01T08:30:10.954Z,102006.87
2019-04-01T08:32:36.902Z,102009.97
2019-04-01T08:35:03.960Z,102011.28
2019-04-01T08:37:30.257Z,101973.27
2019-04-01T08:39:56.254Z,102021.77
2019-04-01T08:42:22.291Z,102023.94
2019-04-01T08:44:48.350Z,102022.12
2019-04-01T08:47:14.219Z,102020.78
2019-04-01T08:49:40.102Z,102012.42
2019-04-01T08:52:06.226Z,102013.31
2019-04-01T08:54:32.180Z,102012.41
2019-04-01T08:56:58.681Z,102008.86
2019-04-01T08:59:24.820Z,102012.38
2019-04-01T09:01:50.784Z,102009.75
2019-04-01T09:04:16.666Z,102003.14
2019-04-01T09:06:42.810Z,102002.70
2019-04-01T09:09:08.768Z,101997.41
2019-04-01T09:11:38.167Z,101996.97
2019-04-01T09:14:02.910Z,101990.39
2019-04-01T09:16:29.074Z,101990.41
2019-04-01T09:18:54.914Z,101998.31
2019-04-01T09:21:21.057Z,101993.50
2019-04-01T09:23:47.186Z,101993.90
2019-04-01T09:26:13.171Z,101996.09
2019-04-01T09:28:39.177Z,101986.88
2019-04-01T09:31:05.032Z,101990.84
2019-04-01T09:33:31.018Z,101983.79
2019-04-01T09:35:57.118Z,101993.00
2019-04-01T09:38:23.047Z,101991.65
2019-04-01T09:40:48.922Z,101979.33
2019-04-01T09:43:14.961Z,101978.89
2019-04-01T09:45:40.920Z,101981.51
2019-04-01T09:48:06.917Z,101988.95
2019-04-01T09:50:32.971Z,101978.02
2019-04-01T09:52:58.828Z,101978.02
2019-04-01T09:55:24.734Z,101980.67
2019-04-01T09:57:50.746Z,101980.69
2019-04-01T10:00:17.024Z,101971.48
2019-04-01T10:02:42.988Z,101978.53
2019-04-01T10:05:09.067Z,101971.95
2019-04-01T10:07:35.064Z,101961.87
2019-04-01T10:10:01.094Z,101962.36
2019-04-01T10:12:27.019Z,101965.94
2019-04-01T10:14:52.868Z,101967.31
2019-04-01T10:17:18.773Z,101954.66
2019-04-01T10:19:44.824Z,101951.16
2019-04-01T10:22:10.780Z,101950.31
2019-04-01T10:24:36.694Z,101942.39
2019-04-01T10:27:02.928Z,101944.59
2019-04-01T10:29:28.870Z,101942.84
2019-04-01T10:31:54.780Z,101933.17
2019-04-01T10:34:20.914Z,101930.52
2019-04-01T10:36:46.801Z,101931.38
2019-04-01T10:39:12.792Z,101929.62
2019-04-01T10:41:38.917Z,101921.22
2019-04-01T10:44:05.090Z,101921.14
2019-04-01T10:46:31.101Z,101923.30
2019-04-01T10:48:57.244Z,101915.36
2019-04-01T10:51:23.195Z,101907.87
2019-04-01T10:53:49.047Z,101903.87
2019-04-01T10:56:15.113Z,101898.99
2019-04-01T10:58:41.045Z,101909.52
2019-04-01T11:01:07.185Z,101902.89
2019-04-01T11:03:33.376Z,101912.09
2019-04-01T11:05:59.145Z,101910.71
2019-04-01T11:08:25.040Z,101906.73
2019-04-01T11:10:51.048Z,101911.13
2019-04-01T11:13:17.060Z,101904.06
2019-04-01T11:15:42.945Z,101896.13
2019-04-01T11:18:09.107Z,101905.80
2019-04-01T11:20:35.171Z,101902.69
2019-04-01T11:23:02.843Z,101889.03
2019-04-01T11:25:28.937Z,101891.61
2019-04-01T11:27:54.886Z,101897.26
2019-04-01T11:30:20.859Z,101887.53
2019-04-01T11:32:46.968Z,101883.48
2019-04-01T11:35:13.068Z,101889.16
2019-04-01T11:37:38.947Z,101884.66
2019-04-01T11:40:09.203Z,101877.17
2019-04-01T11:42:33.006Z,101868.77
2019-04-01T11:44:58.911Z,101862.08
2019-04-01T11:47:25.178Z,101861.98
2019-04-01T11:49:51.168Z,101858.86
2019-04-01T11:52:17.039Z,101851.30
2019-04-01T11:54:42.981Z,101856.98
2019-04-01T11:57:08.867Z,101860.87
2019-04-01T11:59:34.717Z,101848.91
2019-04-01T12:02:00.782Z,101856.71
2019-04-01T12:04:26.668Z,101853.04
2019-04-01T12:06:52.647Z,101852.47
2019-04-01T12:09:18.739Z,101851.46
2019-04-01T12:11:44.824Z,101845.55
2019-04-01T12:14:10.654Z,101841.41
2019-04-01T12:16:36.747Z,101844.80
2019-04-01T12:19:02.769Z,101837.17
2019-04-01T12:21:28.639Z,101839.66
2019-04-01T12:23:54.803Z,101847.86
2019-04-01T12:26:21.196Z,101838.89
2019-04-01T12:28:47.290Z,101843.99
2019-04-01T12:31:13.304Z,101833.32
2019-04-01T12:33:39.358Z,101833.98
2019-04-01T12:36:05.622Z,101826.77
2019-04-01T12:38:31.673Z,101829.24
2019-04-01T12:40:57.561Z,101817.23
2019-04-01T12:43:23.739Z,101814.92
2019-04-01T12:45:49.780Z,101812.28
2019-04-01T12:48:15.766Z,101810.85
2019-04-01T12:50:41.615Z,101817.73
2019-04-01T12:53:07.792Z,101811.45
2019-04-01T12:55:33.810Z,101805.58
2019-04-01T12:57:59.645Z,101821.75
2019-04-01T13:00:29.061Z,101806.61
2019-04-01T13:02:53.585Z,101801.53
2019-04-01T13:05:19.446Z,101805.56
2019-04-01T13:07:45.459Z,101800.72
2019-04-01T13:10:11.692Z,101795.98
2019-04-01T13:12:37.528Z,101792.52
2019-04-01T13:15:04.815Z,101792.98
2019-04-01T13:17:30.919Z,101790.69
2019-04-01T13:19:56.879Z,101780.58
2019-04-01T13:22:22.864Z,101776.72
2019-04-01T13:24:48.728Z,101775.47
2019-04-01T13:27:14.682Z,101778.72
2019-04-01T13:29:40.634Z,101777.61
2019-04-01T13:32:06.623Z,101780.13
2019-04-01T13:34:32.599Z,101784.84
2019-04-01T13:36:58.628Z,101793.14
2019-04-01T13:39:24.967Z,101789.56
2019-04-01T13:41:50.953Z,101796.59
2019-04-01T13:44:17.268Z,101784.65
2019-04-01T13:46:43.146Z,101777.17
2019-04-01T13:49:09.184Z,101776.19
2019-04-01T13:51:35.282Z,101782.28
2019-04-01T13:54:08.408Z,101774.62
2019-04-01T13:56:28.990Z,101778.45
2019-04-01T13:58:54.929Z,101783.61
2019-04-01T14:01:22.697Z,101771.11
2019-04-01T14:03:48.568Z,101772.78
2019-04-01T14:06:14.608Z,101778.05
2019-04-01T14:08:40.522Z,101777.15
2019-04-01T14:11:06.494Z,101770.03
2019-04-01T14:13:32.509Z,101768.25
2019-04-01T14:15:58.421Z,101772.13
2019-04-01T14:18:24.290Z,101777.30
2019-04-01T14:20:50.286Z,101774.54
2019-04-01T14:23:16.435Z,101769.58
2019-04-01T14:25:43.482Z,101768.24
2019-04-01T14:28:09.678Z,101765.14
2019-04-01T14:30:36.441Z,101771.67
2019-04-01T14:33:03.134Z,101770.25
2019-04-01T14:35:29.359Z,101764.00
2019-04-01T14:37:58.021Z,101769.31
2019-04-01T14:40:22.999Z,101772.86
2019-04-01T14:42:48.999Z,101768.47
2019-04-01T14:45:14.971Z,101764.88
2019-04-01T14:47:56.145Z,101764.00
2019-04-01T14:50:08.981Z,101757.36
2019-04-01T14:52:35.141Z,101762.67
2019-04-01T14:55:01.459Z,101759.52
2019-04-01T14:57:28.588Z,101760.80
2019-04-01T14:59:56.230Z,101762.47
2019-04-01T15:02:22.378Z,101757.09
2019-04-01T15:04:48.313Z,101718.95
2019-04-01T15:07:18.016Z,101757.58
2019-04-01T15:09:41.917Z,101759.36
2019-04-01T15:12:10.267Z,101756.80
2019-04-01T15:14:35.718Z,101762.95
2019-04-01T15:17:01.676Z,101764.67
2019-04-01T15:19:27.823Z,101752.72
2019-04-01T15:21:53.855Z,101752.22
2019-04-01T15:24:19.720Z,101751.77
2019-04-01T15:26:45.802Z,101747.78
2019-04-01T15:29:11.709Z,101746.80
2019-04-01T15:31:37.556Z,101749.90
2019-04-01T15:34:03.738Z,101739.70
2019-04-01T15:36:29.705Z,101741.87
2019-04-01T15:38:55.556Z,101744.08
2019-04-01T15:41:21.494Z,101739.64
2019-04-01T15:43:47.387Z,101740.97
2019-04-01T15:46:13.368Z,101737.44
2019-04-01T15:48:39.412Z,101741.42
2019-04-01T15:51:05.432Z,101744.08
2019-04-01T15:53:31.286Z,101743.15
2019-04-01T15:55:57.342Z,101751.95
2019-04-01T15:58:23.290Z,101751.89
2019-04-01T16:00:49.287Z,101754.50
2019-04-01T16:03:15.249Z,101754.00
2019-04-01T16:05:41.133Z,101757.11
2019-04-01T16:08:07.090Z,101751.79
2019-04-01T16:10:33.143Z,101754.05
2019-04-01T16:12:59.012Z,101751.89
2019-04-01T16:15:24.866Z,101755.88
2019-04-01T16:17:53.668Z,101757.66
2019-04-01T16:20:18.821Z,101757.66
2019-04-01T16:22:44.666Z,101755.05
2019-04-01T16:25:10.924Z,101750.23
2019-04-01T16:27:36.807Z,101763.97
2019-04-01T16:30:03.257Z,101765.34
2019-04-01T16:32:29.396Z,101761.81
2019-04-01T16:34:55.519Z,101765.00
2019-04-01T16:37:21.627Z,101764.52
2019-04-01T16:39:48.814Z,101763.23
2019-04-01T16:42:14.812Z,101762.41
2019-04-01T16:44:40.699Z,101770.44
2019-04-01T16:47:06.678Z,101772.20
2019-04-01T16:49:32.732Z,101782.00
2019-04-01T16:52:00.215Z,101775.45
2019-04-01T16:54:26.341Z,101770.59
2019-04-01T16:56:52.205Z,101772.36
2019-04-01T16:59:18.171Z,101775.91
2019-04-01T17:01:44.236Z,101780.83
2019-04-01T17:04:10.183Z,101784.86
2019-04-01T17:06:36.965Z,101782.70
2019-04-01T17:09:04.894Z,101785.95
2019-04-01T17:11:31.010Z,101785.52
2019-04-01T17:13:59.455Z,101780.30
2019-04-01T17:16:25.596Z,101774.19
2019-04-01T17:18:51.453Z,101777.75
2019-04-01T17:21:17.423Z,101790.23
2019-04-01T17:23:43.587Z,101786.80
2019-04-01T17:26:09.573Z,101790.48
2019-04-01T17:28:35.433Z,101789.22
2019-04-01T17:31:01.436Z,101799.05
2019-04-01T17:33:27.301Z,101796.53
2019-04-01T17:35:53.252Z,101801.08
2019-04-01T17:38:19.379Z,101805.70
2019-04-01T17:40:45.351Z,101809.42
2019-04-01T17:43:13.556Z,101812.67
2019-04-01T17:45:40.277Z,101814.19
2019-04-01T17:48:06.698Z,101817.77
2019-04-01T17:50:32.740Z,101819.09
2019-04-01T17:52:58.788Z,101823.03
2019-04-01T17:55:24.757Z,101820.42
2019-04-01T17:57:50.637Z,101822.69
2019-04-01T18:00:24.239Z,101825.30
2019-04-01T18:02:50.214Z,101826.23
2019-04-01T18:05:16.213Z,101830.34
2019-04-01T18:07:42.463Z,101825.53
2019-04-01T18:10:08.418Z,101840.65
2019-04-01T18:12:34.306Z,101836.72
2019-04-01T18:15:00.268Z,101837.66
2019-04-01T18:17:26.131Z,101842.20
2019-04-01T18:19:52.042Z,101843.66
2019-04-01T18:22:18.006Z,101848.09
2019-04-01T18:24:43.851Z,101847.25
2019-04-01T18:27:09.828Z,101848.67
2019-04-01T18:29:35.835Z,101850.04
2019-04-01T18:32:02.381Z,101852.42
2019-04-01T18:34:28.680Z,101850.26
2019-04-01T18:36:54.710Z,101851.27
2019-04-01T18:39:20.608Z,101852.64
2019-04-01T18:41:46.564Z,101851.80
2019-04-01T18:44:12.490Z,101857.10
2019-04-01T18:46:38.357Z,101853.17
2019-04-01T18:49:04.335Z,101847.86
2019-04-01T18:51:30.401Z,101853.61
2019-04-01T18:53:56.379Z,101851.48
2019-04-01T18:56:22.352Z,101848.44
2019-04-01T18:58:48.462Z,101859.56
2019-04-01T19:01:15.922Z,101848.56
2019-04-01T19:03:43.058Z,101849.97
2019-04-01T19:06:09.287Z,101847.84
2019-04-01T19:08:35.265Z,101848.49
2019-04-01T19:11:02.419Z,101854.32
2019-04-01T19:13:28.680Z,101855.69
2019-04-01T19:15:55.068Z,101854.89
2019-04-01T19:18:21.410Z,101855.85
2019-04-01T19:20:56.230Z,101864.77
2019-04-01T19:23:15.208Z,101867.86
2019-04-01T19:25:41.080Z,101863.41
2019-04-01T19:28:07.117Z,101854.97
2019-04-01T19:30:33.086Z,101859.79
2019-04-01T19:32:58.933Z,101860.19
2019-04-01T19:35:24.986Z,101865.05
2019-04-01T19:37:50.858Z,101864.65
2019-04-01T19:40:20.271Z,101873.92
2019-04-01T19:42:44.833Z,101878.39
2019-04-01T19:45:12.316Z,101876.18
2019-04-01T19:47:38.300Z,101870.92
2019-04-01T19:50:06.713Z,101871.92
2019-04-01T19:52:35.200Z,101867.10
2019-04-01T19:55:01.135Z,101868.06
2019-04-01T19:57:28.072Z,101876.50
2019-04-01T19:59:54.453Z,101878.38
2019-04-01T20:02:20.704Z,101877.09
2019-04-01T20:04:46.651Z,101882.03
2019-04-01T20:07:12.605Z,101885.16
2019-04-01T20:09:38.520Z,101887.85
2019-04-01T20:12:04.632Z,101880.41
2019-04-01T20:14:30.588Z,101876.12
2019-04-01T20:16:56.480Z,101876.74
2019-04-01T20:19:22.530Z,101874.17
2019-04-01T20:21:48.498Z,101876.89
2019-04-01T20:24:14.487Z,101871.27
2019-04-01T20:26:40.519Z,101873.11
2019-04-01T20:29:06.518Z,101873.66
2019-04-01T20:31:32.503Z,101877.70
2019-04-01T20:33:58.545Z,101881.31
2019-04-01T20:36:28.832Z,101882.67
2019-04-01T20:38:52.064Z,101892.86
2019-04-01T20:41:18.092Z,101892.45
2019-04-01T20:43:44.185Z,101896.02
2019-04-01T20:46:11.059Z,101894.77
2019-04-01T20:48:37.339Z,101890.86
2019-04-01T20:51:03.298Z,101892.70
2019-04-01T20:53:29.166Z,101903.36
2019-04-01T20:55:55.409Z,101901.69
2019-04-01T20:58:21.264Z,101903.49
2019-04-01T21:00:47.160Z,101907.97
2019-04-01T21:03:13.228Z,101910.20
2019-04-01T21:05:39.184Z,101910.72
2019-04-01T21:08:05.176Z,101915.57
2019-04-01T21:10:31.123Z,101909.45
2019-04-01T21:12:57.105Z,101920.11
2019-04-01T21:15:23.196Z,101920.97
2019-04-01T21:17:49.133Z,101918.31
2019-04-01T21:20:15.020Z,101912.58
2019-04-01T21:22:41.027Z,101903.35
2019-04-01T21:25:07.183Z,101910.03
2019-04-01T21:27:33.035Z,101906.53
2019-04-01T21:29:58.940Z,101907.48
2019-04-01T21:32:24.959Z,101910.57
2019-04-01T21:34:50.927Z,101913.22
2019-04-01T21:37:16.826Z,101911.98
2019-04-01T21:39:42.856Z,101915.98
2019-04-01T21:42:08.922Z,101917.28
2019-04-01T21:44:34.909Z,101916.84
2019-04-01T21:47:00.953Z,101912.46
2019-04-01T21:49:26.907Z,101913.78
2019-04-01T21:51:52.900Z,101919.11
2019-04-01T21:54:18.850Z,101920.09
2019-04-01T21:56:44.702Z,101921.87
2019-04-01T21:59:10.574Z,101915.27
2019-04-01T22:01:36.635Z,101924.09
2019-04-01T22:04:02.724Z,101928.49
2019-04-01T22:06:28.619Z,101928.05
2019-04-01T22:08:54.606Z,101928.49
2019-04-01T22:11:20.586Z,101921.85
2019-04-01T22:13:46.482Z,101931.96
2019-04-01T22:16:12.435Z,101928.41
2019-04-01T22:18:38.307Z,101922.70
2019-04-01T22:21:04.164Z,101926.23
2019-04-01T22:23:30.178Z,101926.64
2019-04-01T22:25:56.121Z,101933.28
2019-04-01T22:28:22.204Z,101931.58
2019-04-01T22:30:48.495Z,101933.44
2019-04-01T22:33:14.355Z,101941.00
2019-04-01T22:35:41.549Z,101941.05
2019-04-01T22:38:07.949Z,101942.81
2019-04-01T22:40:33.879Z,101937.97
2019-04-01T22:42:59.814Z,101933.59
2019-04-01T22:45:25.758Z,101948.55
2019-04-01T22:47:51.766Z,101942.88
2019-04-01T22:50:17.657Z,101948.70
2019-04-01T22:52:43.804Z,101948.31
2019-04-01T22:55:09.661Z,101944.81
2019-04-01T22:57:35.532Z,101946.60
2019-04-01T23:00:01.627Z,101940.05
2019-04-01T23:02:27.492Z,101943.66
2019-04-01T23:04:53.401Z,101944.16
2019-04-01T23:07:19.394Z,101935.41
2019-04-01T23:09:45.257Z,101942.07
2019-04-01T23:12:11.147Z,101948.71
2019-04-01T23:14:37.274Z,101947.83
2019-04-01T23:17:03.244Z,101950.86
2019-04-01T23:19:29.137Z,101953.06
2019-04-01T23:21:55.240Z,101955.23
2019-04-01T23:24:21.115Z,101942.87
2019-04-01T23:26:46.984Z,101942.42
2019-04-01T23:29:13.124Z,101942.42
2019-04-01T23:31:39.001Z,101948.13
2019-04-01T23:34:04.882Z,101950.77
2019-04-01T23:36:30.824Z,101947.72
2019-04-01T23:38:56.676Z,101951.69
2019-04-01T23:41:22.515Z,101953.45
2019-04-01T23:43:48.485Z,101946.86
2019-04-01T23:46:14.417Z,101950.00
2019-04-01T23:48:42.071Z,101947.80
2019-04-01T23:51:08.250Z,101942.54
2019-04-01T23:53:34.115Z,101946.48
2019-04-01T23:56:00.076Z,101945.19
2019-04-01T23:58:26.093Z,101960.64
